Terminal Aerodrome Forecast
Issued by NWS

Home | Current Version | Previous Version | Graphics & Text | Print | Product List | Glossary On
Versions: 1 2 3 4 5 6 7 8 9 10 11 12 13 14 15 16 17 18 19 20 21 22 23 24 25 26 27 28 29 30 31
568
FTUS43 KLOT 142041 AAA
TAFMDW
TAF AMD
KMDW 142041Z 1421/1524 22011KT 5SM BR SCT007 OVC025
      TEMPO 1421/1422 3SM -DZ BR BKN007
     FM142200 21011KT 2SM -DZ OVC007
     FM150000 23011KT 1 1/2SM BR SCT003 OVC005 WS020/25040KT
      TEMPO 1500/1504 3/4SM -DZ BR OVC003
     FM151200 23007KT 3/4SM -DZ BR OVC003
     FM151800 26006KT 1 1/2SM -RA BR OVC004=

USA.gov is the U.S. government's official web portal to all federal, state and local government web resources and services.